Cotulla, Texas
Current Conditions -  °F | °C
As of 3:53 PM on Thursday 23 Oct 2014 (Local Time) from KCOT Reporting Station
Few Clouds Few Clouds  
Wind Chill: 31°   Ceiling: Unl
Heat Index: 31°   Visibility: 10mi
Dew Point: 14°   Wind: 3mph
Humidity: 37%   Direction: NA
Pressure: 30.05"   Gusts: NA
Location:  28.44°N, 99.24°W
Report Text: KCOT 232053Z AUTO VRB03KT 10SM FEW090 31/14 A3005 RMK AO2 SLP168 T03060144 56025
Loading
Personal Weather Stations






























Interactive Weather Map
Tropical Storm Tracking
New forecast layout! Learn more

10-Day Weather Forecast

Advertisements
Track Severe Weather on mobile